createdAt,value
2016-09-13T00:00:17.852Z,93.1
2016-09-13T00:01:29.061Z,92.72
2016-09-13T00:02:40.063Z,92.52
2016-09-13T00:03:51.064Z,91.85
2016-09-13T00:05:02.068Z,92.05
2016-09-13T00:06:13.071Z,92.05
2016-09-13T00:07:24.074Z,92.81
2016-09-13T00:08:35.076Z,92.05
2016-09-13T00:09:46.083Z,93.77
2016-09-13T00:10:57.087Z,92.62
2016-09-13T00:12:08.100Z,91.66
2016-09-13T00:13:19.302Z,91.18
2016-09-13T00:14:30.307Z,92.33
2016-09-13T00:15:41.304Z,92.52
2016-09-13T00:16:52.304Z,94.73
2016-09-13T00:18:03.513Z,96.85
2016-09-13T00:19:14.720Z,95.79
2016-09-13T00:20:25.727Z,95.98
2016-09-13T00:21:36.932Z,95.17
2016-09-13T00:22:47.938Z,93.63
2016-09-13T00:23:58.943Z,96.22
2016-09-13T00:25:10.150Z,97.28
2016-09-13T00:26:21.362Z,95.75
2016-09-13T00:27:32.571Z,95.55
2016-09-13T00:28:43.577Z,98.53
2016-09-13T00:29:54.784Z,98.14
2016-09-13T00:31:05.782Z,97.47
2016-09-13T00:32:16.798Z,97.76
2016-09-13T00:33:27.794Z,96.03
2016-09-13T00:34:38.797Z,95.07
2016-09-13T00:35:49.800Z,94.31
2016-09-13T00:37:01.202Z,93.34
2016-09-13T00:38:12.210Z,92.86
2016-09-13T00:39:23.210Z,94.4
2016-09-13T00:40:34.217Z,94.11
2016-09-13T00:41:45.226Z,94.49
2016-09-13T00:42:56.285Z,93.44
2016-09-13T00:44:07.504Z,93.54
2016-09-13T00:45:18.510Z,93.44
2016-09-13T00:46:29.516Z,93.73
2016-09-13T00:47:40.514Z,93.82
2016-09-13T00:48:51.513Z,96.99
2016-09-13T00:50:02.527Z,97.66
2016-09-13T00:51:13.542Z,98.43
2016-09-13T00:52:24.549Z,98.72
2016-09-13T00:53:35.549Z,99.49
2016-09-13T00:54:46.553Z,98.58
2016-09-13T00:55:57.559Z,99.97
2016-09-13T00:57:08.570Z,99.99
2016-09-13T00:58:19.570Z,99.99
2016-09-13T00:59:30.776Z,99.63
2016-09-13T01:00:41.980Z,98.1
2016-09-13T01:01:52.976Z,99.73
2016-09-13T01:03:03.974Z,99.63
2016-09-13T01:04:14.974Z,98.19
2016-09-13T01:05:25.989Z,96.85
2016-09-13T01:06:36.987Z,95.41
2016-09-13T01:07:47.990Z,94.54
2016-09-13T01:08:58.992Z,95.12
2016-09-13T01:10:09.995Z,95.41
2016-09-13T01:11:21.200Z,94.83
2016-09-13T01:12:32.203Z,93.77
2016-09-13T01:13:43.218Z,94.35
2016-09-13T01:14:54.235Z,93.97
2016-09-13T01:16:05.240Z,94.07
2016-09-13T01:17:16.440Z,94.26
2016-09-13T01:18:27.644Z,93.3
2016-09-13T01:19:38.852Z,93.1
2016-09-13T01:20:50.061Z,96.27
2016-09-13T01:22:01.068Z,96.66
2016-09-13T01:23:12.279Z,99.54
2016-09-13T01:24:23.280Z,99.99
2016-09-13T01:25:34.481Z,99.73
2016-09-13T01:26:45.485Z,97.42
2016-09-13T01:27:56.487Z,96.94
2016-09-13T01:29:07.492Z,98
2016-09-13T01:30:18.494Z,96.75
2016-09-13T01:31:29.497Z,95.5
2016-09-13T01:32:40.717Z,95.41
2016-09-13T01:33:51.724Z,94.07
2016-09-13T01:35:02.721Z,93.3
2016-09-13T01:36:13.728Z,93.2
2016-09-13T01:37:24.944Z,93.77
2016-09-13T01:38:35.942Z,93.59
2016-09-13T01:39:46.942Z,93.97
2016-09-13T01:40:57.945Z,93.01
2016-09-13T01:42:08.947Z,92.53
2016-09-13T01:43:20.003Z,91.66
2016-09-13T01:44:31.014Z,92.05
2016-09-13T01:45:42.024Z,94.83
2016-09-13T01:46:53.029Z,93.3
2016-09-13T01:48:04.044Z,93.49
2016-09-13T01:49:15.068Z,92.91
2016-09-13T01:50:26.278Z,91.96
2016-09-13T01:51:37.694Z,91.66
2016-09-13T01:52:48.714Z,92.53
2016-09-13T01:53:59.916Z,92.24
2016-09-13T01:55:11.128Z,91.86
2016-09-13T01:56:22.138Z,92.05
2016-09-13T01:57:33.147Z,92.33
2016-09-13T01:58:44.352Z,92.24
2016-09-13T01:59:55.363Z,92.63
2016-09-13T02:01:06.572Z,92.53
2016-09-13T02:02:17.570Z,91.38
2016-09-13T02:03:28.576Z,92.29
2016-09-13T02:04:39.585Z,92.63
2016-09-13T02:05:50.787Z,93.68
2016-09-13T02:07:01.785Z,93.49
2016-09-13T02:08:12.795Z,92.82
2016-09-13T02:09:23.812Z,93.15
2016-09-13T02:10:34.825Z,93.54
2016-09-13T02:11:45.833Z,93.82
2016-09-13T02:12:57.040Z,94.98
2016-09-13T02:14:08.244Z,95.07
2016-09-13T02:15:19.247Z,95.36
2016-09-13T02:16:30.253Z,99.77
2016-09-13T02:17:41.254Z,99.99
2016-09-13T02:18:52.259Z,99.87
2016-09-13T02:20:03.272Z,97.38
2016-09-13T02:21:14.279Z,96.51
2016-09-13T02:22:25.284Z,95.36
2016-09-13T02:23:36.295Z,95.17
2016-09-13T02:24:47.302Z,93.63
2016-09-13T02:25:58.308Z,93.35
2016-09-13T02:27:09.511Z,93.44
2016-09-13T02:28:20.513Z,93.44
2016-09-13T02:29:31.515Z,94.12
2016-09-13T02:30:42.515Z,95.07
2016-09-13T02:31:53.514Z,98.72
2016-09-13T02:33:04.511Z,99.99
2016-09-13T02:34:15.518Z,99.99
2016-09-13T02:35:26.532Z,99.99
2016-09-13T02:36:37.729Z,99.99
2016-09-13T02:37:48.732Z,99.99
2016-09-13T02:38:59.733Z,99.87
2016-09-13T02:40:10.735Z,99.99
2016-09-13T02:41:21.742Z,99.99
2016-09-13T02:42:32.759Z,99.99
2016-09-13T02:43:43.807Z,99.99
2016-09-13T02:44:54.815Z,99.34
2016-09-13T02:46:05.824Z,98.86
2016-09-13T02:47:16.824Z,97.14
2016-09-13T02:48:27.826Z,95.98
2016-09-13T02:49:38.828Z,96.08
2016-09-13T02:50:49.829Z,95.51
2016-09-13T02:52:00.831Z,95.21
2016-09-13T02:53:11.851Z,94.64
2016-09-13T02:54:23.050Z,93.88
2016-09-13T02:55:34.082Z,94.74
2016-09-13T02:56:45.095Z,94.54
2016-09-13T02:57:56.103Z,95.21
2016-09-13T02:59:07.312Z,94.74
2016-09-13T03:00:18.315Z,95.12
2016-09-13T03:01:29.508Z,97.42
2016-09-13T03:02:40.709Z,99.15
2016-09-13T03:03:51.909Z,99.99
2016-09-13T03:05:02.916Z,98.77
2016-09-13T03:06:13.927Z,97.14
2016-09-13T03:07:24.937Z,94.84
2016-09-13T03:08:35.935Z,95.12
2016-09-13T03:09:46.943Z,94.74
2016-09-13T03:10:57.946Z,95.03
2016-09-13T03:12:08.968Z,95.21
2016-09-13T03:13:20.174Z,95.89
2016-09-13T03:14:31.175Z,99.15
2016-09-13T03:15:42.183Z,99.99
2016-09-13T03:16:53.179Z,99.99
2016-09-13T03:18:04.182Z,99.99
2016-09-13T03:19:15.178Z,99.99
2016-09-13T03:20:26.191Z,99.99
2016-09-13T03:21:37.397Z,99.99
2016-09-13T03:22:48.402Z,99.99
2016-09-13T03:23:59.403Z,99.53
2016-09-13T03:25:10.408Z,97.71
2016-09-13T03:26:21.411Z,97.9
2016-09-13T03:27:32.422Z,99.91
2016-09-13T03:28:43.425Z,99.99
2016-09-13T03:29:54.431Z,99.99
2016-09-13T03:31:05.639Z,99.99
2016-09-13T03:32:16.642Z,99.53
2016-09-13T03:33:27.655Z,99.48
2016-09-13T03:34:38.665Z,99.77
2016-09-13T03:35:50.073Z,98.24
2016-09-13T03:37:01.077Z,99.39
2016-09-13T03:38:12.080Z,99.99
2016-09-13T03:39:23.083Z,99.39
2016-09-13T03:40:34.094Z,97.76
2016-09-13T03:41:45.088Z,98.91
2016-09-13T03:42:56.088Z,97.09
2016-09-13T03:44:07.138Z,98.52
2016-09-13T03:45:18.159Z,96.61
2016-09-13T03:46:29.164Z,95.26
2016-09-13T03:47:40.175Z,94.89
2016-09-13T03:48:51.175Z,94.79
2016-09-13T03:50:02.181Z,94.12
2016-09-13T03:51:13.183Z,94.31
2016-09-13T03:52:24.186Z,94.89
2016-09-13T03:53:35.390Z,94.89
2016-09-13T03:54:46.387Z,94.98
2016-09-13T03:55:57.391Z,94.59
2016-09-13T03:57:08.394Z,95.17
2016-09-13T03:58:19.395Z,95.36
2016-09-13T03:59:30.396Z,95.36
2016-09-13T04:00:41.398Z,95.07
2016-09-13T04:01:52.608Z,94.98
2016-09-13T04:03:03.606Z,94.4
2016-09-13T04:04:14.607Z,95.36
2016-09-13T04:05:25.609Z,95.94
2016-09-13T04:06:36.616Z,96.32
2016-09-13T04:07:47.625Z,99.99
2016-09-13T04:08:58.616Z,99.99
2016-09-13T04:10:09.623Z,99.99
2016-09-13T04:11:20.621Z,99.99
2016-09-13T04:12:31.615Z,99.99
2016-09-13T04:13:42.621Z,99.99
2016-09-13T04:14:53.623Z,99.99
2016-09-13T04:16:04.631Z,99.99
2016-09-13T04:17:15.845Z,99.99
2016-09-13T04:18:27.041Z,99.99
2016-09-13T04:19:38.252Z,99.77
2016-09-13T04:20:49.458Z,97.56
2016-09-13T04:22:00.455Z,97.09
2016-09-13T04:23:11.458Z,96.13
2016-09-13T04:24:22.455Z,95.46
2016-09-13T04:25:33.454Z,95.17
2016-09-13T04:26:44.452Z,95.07
2016-09-13T04:27:55.471Z,94.12
2016-09-13T04:29:06.670Z,94.21
2016-09-13T04:30:17.669Z,94.59
2016-09-13T04:31:28.673Z,94.21
2016-09-13T04:32:39.671Z,94.31
2016-09-13T04:33:50.876Z,94.59
2016-09-13T04:35:01.875Z,94.69
2016-09-13T04:36:12.871Z,94.12
2016-09-13T04:37:24.073Z,93.73
2016-09-13T04:38:35.276Z,94.5
2016-09-13T04:39:46.484Z,94.98
2016-09-13T04:40:57.486Z,95.17
2016-09-13T04:42:08.489Z,95.94
2016-09-13T04:43:19.491Z,95.07
2016-09-13T04:44:30.742Z,93.83
2016-09-13T04:45:41.745Z,93.35
2016-09-13T04:46:52.946Z,92.87
2016-09-13T04:48:03.953Z,93.35
2016-09-13T04:49:14.960Z,93.73
2016-09-13T04:50:25.975Z,93.35
2016-09-13T04:51:36.974Z,94.02
2016-09-13T04:52:47.969Z,95.17
2016-09-13T04:53:58.964Z,95.26
2016-09-13T04:55:09.962Z,94.89
2016-09-13T04:56:20.958Z,95.26
2016-09-13T04:57:31.964Z,95.26
2016-09-13T04:58:42.967Z,96.03
2016-09-13T04:59:53.969Z,94.98
2016-09-13T05:01:04.972Z,95.56
2016-09-13T05:02:15.978Z,99.19
2016-09-13T05:03:26.974Z,99.99
2016-09-13T05:04:37.989Z,98.47
2016-09-13T05:05:48.992Z,97.95
2016-09-13T05:06:59.991Z,97.38
2016-09-13T05:08:10.993Z,97.66
2016-09-13T05:09:21.991Z,98.52
2016-09-13T05:10:32.991Z,99.19
2016-09-13T05:11:44.000Z,99.99
2016-09-13T05:12:54.994Z,99.99
2016-09-13T05:14:05.988Z,99.99
2016-09-13T05:15:17.004Z,99.48
2016-09-13T05:16:27.995Z,97.38
2016-09-13T05:17:39.000Z,95.94
2016-09-13T05:18:50.193Z,94.98
2016-09-13T05:20:01.596Z,94.31
2016-09-13T05:21:12.601Z,95.17
2016-09-13T05:22:23.598Z,94.69
2016-09-13T05:23:34.610Z,94.31
2016-09-13T05:24:45.616Z,93.35
2016-09-13T05:25:56.613Z,93.16
2016-09-13T05:27:07.869Z,92.68
2016-09-13T05:28:18.869Z,94.21
2016-09-13T05:29:29.883Z,94.59
2016-09-13T05:30:40.888Z,95.26
2016-09-13T05:31:51.892Z,95.65
2016-09-13T05:33:02.899Z,98.05
2016-09-13T05:34:13.899Z,96.51
2016-09-13T05:35:24.908Z,97.76
2016-09-13T05:36:35.919Z,98.33
2016-09-13T05:37:46.927Z,97.66
2016-09-13T05:38:57.929Z,95.65
2016-09-13T05:40:08.935Z,94.31
2016-09-13T05:41:20.138Z,93.26
2016-09-13T05:42:31.142Z,94.31
2016-09-13T05:43:42.154Z,94.4
2016-09-13T05:44:53.205Z,94.21
2016-09-13T05:46:04.402Z,94.79
2016-09-13T05:47:15.410Z,95.17
2016-09-13T05:48:26.407Z,95.46
2016-09-13T05:49:37.613Z,94.59
2016-09-13T05:50:48.613Z,93.54
2016-09-13T05:51:59.614Z,94.4
2016-09-13T05:53:10.626Z,94.02
2016-09-13T05:54:21.639Z,94.02
2016-09-13T05:55:32.640Z,93.83
2016-09-13T05:56:43.641Z,92.49
2016-09-13T05:57:54.648Z,92.58
2016-09-13T05:59:05.657Z,93.68
2016-09-13T06:00:16.854Z,94.07
2016-09-13T06:01:28.057Z,94.54
2016-09-13T06:02:39.062Z,95.12
2016-09-13T06:03:50.071Z,95.03
2016-09-13T06:05:01.077Z,95.03
2016-09-13T06:06:12.077Z,93.88
2016-09-13T06:07:23.079Z,93.59
2016-09-13T06:08:34.085Z,92.05
2016-09-13T06:09:45.089Z,92.72
2016-09-13T06:10:56.098Z,91.57
2016-09-13T06:12:07.300Z,91.19
2016-09-13T06:13:18.317Z,89.85
2016-09-13T06:14:29.318Z,89.61
2016-09-13T06:15:40.321Z,89.89
2016-09-13T06:16:51.327Z,90.47
2016-09-13T06:18:02.338Z,90.56
2016-09-13T06:19:13.336Z,91.81
2016-09-13T06:20:24.341Z,91.81
2016-09-13T06:21:35.349Z,92.29
2016-09-13T06:22:46.349Z,92.39
2016-09-13T06:23:57.354Z,92.68
2016-09-13T06:25:08.361Z,92.77
2016-09-13T06:26:19.367Z,94.21
2016-09-13T06:27:30.381Z,95.79
2016-09-13T06:28:41.408Z,98.91
2016-09-13T06:29:52.415Z,99.99
2016-09-13T06:31:03.620Z,99.15
2016-09-13T06:32:14.614Z,97.71
2016-09-13T06:33:25.606Z,94.93
2016-09-13T06:34:36.810Z,93.3
2016-09-13T06:35:47.815Z,94.26
2016-09-13T06:36:58.817Z,97.91
2016-09-13T06:38:09.817Z,98.86
2016-09-13T06:39:20.816Z,99.99
2016-09-13T06:40:32.025Z,99.99
2016-09-13T06:41:43.024Z,99.99
2016-09-13T06:42:54.021Z,99.99
2016-09-13T06:44:05.026Z,99.99
2016-09-13T06:45:16.083Z,99.99
2016-09-13T06:46:27.098Z,98.68
2016-09-13T06:47:38.106Z,96.61
2016-09-13T06:48:49.106Z,95.6
2016-09-13T06:50:00.115Z,94.01
2016-09-13T06:51:11.126Z,90.64
2016-09-13T06:52:22.134Z,91.55
2016-09-13T06:53:33.184Z,90.15
2016-09-13T06:54:44.398Z,87.2
2016-09-13T06:55:55.611Z,85.89
2016-09-13T06:57:06.620Z,83.91
2016-09-13T06:58:17.635Z,82.46
2016-09-13T06:59:28.645Z,81.92
2016-09-13T07:00:39.665Z,80.99
2016-09-13T07:01:50.682Z,79.68
2016-09-13T07:03:01.693Z,78.56
2016-09-13T07:04:12.703Z,79.33
2016-09-13T07:05:23.713Z,79.17
2016-09-13T07:06:34.725Z,78.11
2016-09-13T07:07:45.741Z,77.19
2016-09-13T07:08:56.760Z,76.79
2016-09-13T07:10:07.775Z,74.6
2016-09-13T07:11:18.789Z,74.7
2016-09-13T07:12:29.798Z,73.86
2016-09-13T07:13:40.804Z,73.19
2016-09-13T07:14:51.823Z,73.28
2016-09-13T07:16:03.043Z,72.83
2016-09-13T07:17:14.086Z,73.13
2016-09-13T07:18:25.102Z,74.68
2016-09-13T07:19:36.115Z,74.16
2016-09-13T07:20:47.136Z,75.42
2016-09-13T07:21:58.156Z,74.16
2016-09-13T07:23:09.579Z,73.28
2016-09-13T07:24:20.605Z,72.83
2016-09-13T07:25:31.621Z,70.45
2016-09-13T07:26:42.846Z,70.35
2016-09-13T07:27:54.060Z,69.41
2016-09-13T07:29:05.078Z,69.84
2016-09-13T07:30:16.098Z,68.8
2016-09-13T07:31:27.343Z,67.34
2016-09-13T07:32:38.565Z,66.86
2016-09-13T07:33:49.585Z,66.11
2016-09-13T07:35:00.603Z,65.63
2016-09-13T07:36:11.622Z,65.85
2016-09-13T07:37:22.637Z,65.69
2016-09-13T07:38:33.652Z,64.81
2016-09-13T07:39:44.672Z,64.17
2016-09-13T07:40:56.093Z,63.58
2016-09-13T07:42:07.518Z,63.22
2016-09-13T07:43:18.540Z,62.73
2016-09-13T07:44:29.561Z,63.06
2016-09-13T07:45:41.029Z,61.69
2016-09-13T07:46:52.064Z,61.69
2016-09-13T07:48:03.076Z,61.63
2016-09-13T07:49:14.114Z,61.53
2016-09-13T07:50:25.145Z,60.68
2016-09-13T07:51:36.172Z,59.51
2016-09-13T07:52:47.194Z,58.86
2016-09-13T07:53:58.414Z,58.4
2016-09-13T07:55:09.438Z,58.23
2016-09-13T07:56:20.458Z,58.62
2016-09-13T07:57:31.700Z,59.01
2016-09-13T07:58:42.730Z,58.45
2016-09-13T07:59:53.758Z,57.18
2016-09-13T08:01:04.976Z,56.52
2016-09-13T08:02:16.004Z,55.26
2016-09-13T08:03:27.241Z,55.74
2016-09-13T08:04:38.258Z,55.08
2016-09-13T08:05:49.283Z,55.28
2016-09-13T08:07:00.313Z,54.91
2016-09-13T08:08:11.348Z,54.23
2016-09-13T08:09:22.366Z,56.09
2016-09-13T08:10:33.600Z,54.82
2016-09-13T08:11:44.835Z,53.96
2016-09-13T08:12:55.865Z,53.99
2016-09-13T08:14:06.912Z,53.99
2016-09-13T08:15:17.934Z,53.11
2016-09-13T08:16:28.956Z,53.33
2016-09-13T08:17:40.182Z,53.23
2016-09-13T08:18:51.211Z,52.64
2016-09-13T08:20:02.249Z,52.96
2016-09-13T08:21:13.466Z,52.84
2016-09-13T08:22:24.492Z,51.66
2016-09-13T08:23:35.515Z,52.55
2016-09-13T08:24:46.551Z,52.45
2016-09-13T08:25:57.580Z,52.18
2016-09-13T08:27:08.605Z,52.37
2016-09-13T08:28:19.625Z,51.32
2016-09-13T08:29:30.651Z,51.22
2016-09-13T08:30:41.663Z,50.66
2016-09-13T08:31:52.694Z,50.29
2016-09-13T08:33:03.718Z,50.59
2016-09-13T08:34:14.745Z,49.82
2016-09-13T08:35:25.776Z,49.33
2016-09-13T08:36:36.813Z,48.55
2016-09-13T08:37:47.837Z,49.16
2016-09-13T08:38:58.865Z,48.27
2016-09-13T08:40:10.093Z,49.65
2016-09-13T08:41:21.126Z,49.16
2016-09-13T08:42:32.147Z,48.37
2016-09-13T08:43:43.179Z,50.04
2016-09-13T08:44:54.210Z,49.08
2016-09-13T08:46:05.294Z,47.91
2016-09-13T08:47:16.334Z,48.59
2016-09-13T08:48:27.359Z,49.18
2016-09-13T08:49:38.401Z,48.3
2016-09-13T08:50:49.829Z,48.99
2016-09-13T08:52:00.859Z,49.08
2016-09-13T08:53:12.089Z,48.79
2016-09-13T08:54:23.126Z,48.99
2016-09-13T08:55:34.157Z,48
2016-09-13T08:56:45.193Z,47.41
2016-09-13T08:57:56.429Z,48.89
2016-09-13T08:59:07.668Z,48.82
2016-09-13T09:00:18.692Z,48.32
2016-09-13T09:01:29.718Z,47.24
2016-09-13T09:02:40.737Z,47.16
2016-09-13T09:03:51.766Z,49.13
2016-09-13T09:05:02.800Z,48.47
2016-09-13T09:06:13.822Z,46.5
2016-09-13T09:07:25.261Z,48.17
2016-09-13T09:08:36.490Z,49.06
2016-09-13T09:09:47.515Z,47.21
2016-09-13T09:10:58.554Z,47.41
2016-09-13T09:12:09.588Z,47.5
2016-09-13T09:13:20.612Z,48
2016-09-13T09:14:31.637Z,46.91
2016-09-13T09:15:42.670Z,46.52
2016-09-13T09:16:53.906Z,46.81
2016-09-13T09:18:05.157Z,47.97
2016-09-13T09:19:16.186Z,47.8
2016-09-13T09:20:27.417Z,48.19
2016-09-13T09:21:38.650Z,46.81
2016-09-13T09:22:49.676Z,46.12
2016-09-13T09:24:00.702Z,46.52
2016-09-13T09:25:11.732Z,46.44
2016-09-13T09:26:22.753Z,46.25
2016-09-13T09:27:33.781Z,46.04
2016-09-13T09:28:44.823Z,45.48
2016-09-13T09:29:56.053Z,44.79
2016-09-13T09:31:07.079Z,44.29
2016-09-13T09:32:18.111Z,46.37
2016-09-13T09:33:29.138Z,45.38
2016-09-13T09:34:40.176Z,45.4
2016-09-13T09:35:51.207Z,45.3
2016-09-13T09:37:02.239Z,45.28
2016-09-13T09:38:13.263Z,44.59
2016-09-13T09:39:24.291Z,44.87
2016-09-13T09:40:35.319Z,44.87
2016-09-13T09:41:46.345Z,45.48
2016-09-13T09:42:57.366Z,46.47
2016-09-13T09:44:08.388Z,45.6
2016-09-13T09:45:19.412Z,42.74
2016-09-13T09:46:30.493Z,42.83
2016-09-13T09:47:41.529Z,44.12
2016-09-13T09:48:52.557Z,45.03
2016-09-13T09:50:03.576Z,44.14
2016-09-13T09:51:14.608Z,43.82
2016-09-13T09:52:25.637Z,44.71
2016-09-13T09:53:36.665Z,44.69
2016-09-13T09:54:47.695Z,43.21
2016-09-13T09:55:58.716Z,44.12
2016-09-13T09:57:09.750Z,44
2016-09-13T09:58:20.790Z,43.8
2016-09-13T09:59:31.819Z,42.61
2016-09-13T10:00:42.848Z,42.22
2016-09-13T10:01:53.869Z,44
2016-09-13T10:03:04.896Z,46.09
2016-09-13T10:04:15.928Z,42.46
2016-09-13T10:05:26.951Z,42.56
2016-09-13T10:06:37.983Z,43.65
2016-09-13T10:07:49.017Z,42.16
2016-09-13T10:09:00.065Z,42.48
2016-09-13T10:10:11.104Z,44.43
2016-09-13T10:11:22.132Z,42.66
2016-09-13T10:12:33.157Z,42.26
2016-09-13T10:13:44.184Z,43.74
2016-09-13T10:14:55.210Z,44.22
2016-09-13T10:16:06.239Z,44.39
2016-09-13T10:17:17.280Z,44.39
2016-09-13T10:18:28.506Z,44.49
2016-09-13T10:19:39.540Z,45.48
2016-09-13T10:20:50.564Z,44.61
2016-09-13T10:22:01.594Z,45.01
2016-09-13T10:23:12.610Z,44.96
2016-09-13T10:24:23.634Z,43.98
2016-09-13T10:25:34.690Z,45.56
2016-09-13T10:26:45.720Z,44.87
2016-09-13T10:27:56.751Z,44.57
2016-09-13T10:29:07.979Z,46.91
2016-09-13T10:30:19.008Z,45.16
2016-09-13T10:31:30.239Z,44
2016-09-13T10:32:41.482Z,44.89
2016-09-13T10:33:52.515Z,44.49
2016-09-13T10:35:03.540Z,44.69
2016-09-13T10:36:14.773Z,43.8
2016-09-13T10:37:25.807Z,43.7
2016-09-13T10:38:36.846Z,44.49
2016-09-13T10:39:47.874Z,44.61
2016-09-13T10:40:58.898Z,43.92
2016-09-13T10:42:09.926Z,45.52
2016-09-13T10:43:21.160Z,45.03
2016-09-13T10:44:32.179Z,43.96
2016-09-13T10:45:43.211Z,43.25
2016-09-13T10:46:54.294Z,44.64
2016-09-13T10:48:05.336Z,45.6
2016-09-13T10:49:16.376Z,43.82
2016-09-13T10:50:27.406Z,43.94
2016-09-13T10:51:38.449Z,43.45
2016-09-13T10:52:49.476Z,42.76
2016-09-13T10:54:00.706Z,44.34
2016-09-13T10:55:11.739Z,42.38
2016-09-13T10:56:22.764Z,42.76
2016-09-13T10:57:33.793Z,42.76
2016-09-13T10:58:44.815Z,42.85
2016-09-13T10:59:55.841Z,42.38
2016-09-13T11:01:06.886Z,43.45
2016-09-13T11:02:17.916Z,42.96
2016-09-13T11:03:28.938Z,43.73
2016-09-13T11:04:39.963Z,44.51
2016-09-13T11:05:50.984Z,45.3
2016-09-13T11:07:02.013Z,45.89
2016-09-13T11:08:13.037Z,45.48
2016-09-13T11:09:24.069Z,45.6
2016-09-13T11:10:35.096Z,43.13
2016-09-13T11:11:46.127Z,42.74
2016-09-13T11:12:57.353Z,43.43
2016-09-13T11:14:08.384Z,43.62
2016-09-13T11:15:19.611Z,44.51
2016-09-13T11:16:30.641Z,44.51
2016-09-13T11:17:41.873Z,44.69
2016-09-13T11:18:52.908Z,43.62
2016-09-13T11:20:03.940Z,45.18
2016-09-13T11:21:14.968Z,45.16
2016-09-13T11:22:26.006Z,45.75
2016-09-13T11:23:37.041Z,44.96
2016-09-13T11:24:48.273Z,47.23
2016-09-13T11:25:59.296Z,46.91
2016-09-13T11:27:10.344Z,46.94
2016-09-13T11:28:21.375Z,47.7
2016-09-13T11:29:32.396Z,46.62
2016-09-13T11:30:43.611Z,46.1
2016-09-13T11:31:54.631Z,45.71
2016-09-13T11:33:05.656Z,44.51
2016-09-13T11:34:16.883Z,45.68
2016-09-13T11:35:28.107Z,47.85
2016-09-13T11:36:39.137Z,46.97
2016-09-13T11:37:50.158Z,47.75
2016-09-13T11:39:01.185Z,46.89
2016-09-13T11:40:12.216Z,45.12
2016-09-13T11:41:23.241Z,45.21
2016-09-13T11:42:34.275Z,45.31
2016-09-13T11:43:45.295Z,45.31
2016-09-13T11:44:56.314Z,44.84
2016-09-13T11:46:07.347Z,44.65
2016-09-13T11:47:18.430Z,44.55
2016-09-13T11:48:29.459Z,44.84
2016-09-13T11:49:40.487Z,43.86
2016-09-13T11:50:51.512Z,45.14
2016-09-13T11:52:02.541Z,45.63
2016-09-13T11:53:13.762Z,45.36
2016-09-13T11:54:24.779Z,44.57
2016-09-13T11:55:35.801Z,44.18
2016-09-13T11:56:47.024Z,44.47
2016-09-13T11:57:58.045Z,44.67
2016-09-13T11:59:09.077Z,45.56
2016-09-13T12:00:20.094Z,44.39
2016-09-13T12:01:31.157Z,46.86
2016-09-13T12:02:42.182Z,45.18
2016-09-13T12:03:53.208Z,44.89
2016-09-13T12:05:04.435Z,43.88
2016-09-13T12:06:15.461Z,44.74
2016-09-13T12:07:26.484Z,44.55
2016-09-13T12:08:37.515Z,44.55
2016-09-13T12:09:48.538Z,43.96
2016-09-13T12:10:59.555Z,43.29
2016-09-13T12:12:10.581Z,42.6
2016-09-13T12:13:21.599Z,44.18
2016-09-13T12:14:32.630Z,43.01
2016-09-13T12:15:43.652Z,42.64
2016-09-13T12:16:54.883Z,41.25
2016-09-13T12:18:05.910Z,40.37
2016-09-13T12:19:16.932Z,40.05
2016-09-13T12:20:27.951Z,39.56
2016-09-13T12:21:38.974Z,41.12
2016-09-13T12:22:50.001Z,40.72
2016-09-13T12:24:01.232Z,41.78
2016-09-13T12:25:12.253Z,41.49
2016-09-13T12:26:23.269Z,40.51
2016-09-13T12:27:34.696Z,41.39
2016-09-13T12:28:45.725Z,40.61
2016-09-13T12:29:56.952Z,42.16
2016-09-13T12:31:07.978Z,41.77
2016-09-13T12:32:18.999Z,42.26
2016-09-13T12:33:30.022Z,42.24
2016-09-13T12:34:41.039Z,41.94
2016-09-13T12:35:52.061Z,42.54
2016-09-13T12:37:03.278Z,41.94
2016-09-13T12:38:14.298Z,41.77
2016-09-13T12:39:25.530Z,41.65
2016-09-13T12:40:36.759Z,43.13
2016-09-13T12:41:47.784Z,43.42
2016-09-13T12:42:58.805Z,42.54
2016-09-13T12:44:09.836Z,41.94
2016-09-13T12:45:20.843Z,40.96
2016-09-13T12:46:32.066Z,42.93
2016-09-13T12:47:43.138Z,45.56
2016-09-13T12:48:54.146Z,44.98
2016-09-13T12:50:05.167Z,42.81
2016-09-13T12:51:16.187Z,43.68
2016-09-13T12:52:27.215Z,44.66
2016-09-13T12:53:38.222Z,45.23
2016-09-13T12:54:49.250Z,45.23
2016-09-13T12:56:00.263Z,43.65
2016-09-13T12:57:11.282Z,43.16
2016-09-13T12:58:22.501Z,44.05
2016-09-13T12:59:33.522Z,44.83
2016-09-13T13:00:44.554Z,42.18
2016-09-13T13:01:55.580Z,43.85
2016-09-13T13:03:06.593Z,44.93
2016-09-13T13:04:17.607Z,44.93
2016-09-13T13:05:28.633Z,44.93
2016-09-13T13:06:39.649Z,45.52
2016-09-13T13:07:50.666Z,45.7
2016-09-13T13:09:01.682Z,49.53
2016-09-13T13:10:12.901Z,44.91
2016-09-13T13:11:23.914Z,53.27
2016-09-13T13:12:34.937Z,53.46
2016-09-13T13:13:45.960Z,49.65
2016-09-13T13:14:56.980Z,48.94
2016-09-13T13:16:08.410Z,46.5
2016-09-13T13:17:19.437Z,44.62
2016-09-13T13:18:30.455Z,45.1
2016-09-13T13:19:41.483Z,44.81
2016-09-13T13:20:52.495Z,45.6
2016-09-13T13:22:03.517Z,46.36
2016-09-13T13:23:14.736Z,45.38
2016-09-13T13:24:25.760Z,43.8
2016-09-13T13:25:36.766Z,42.43
2016-09-13T13:26:47.783Z,44.47
2016-09-13T13:27:58.808Z,43.88
2016-09-13T13:29:10.025Z,46.04
2016-09-13T13:30:21.043Z,46.44
2016-09-13T13:31:32.064Z,47.32
2016-09-13T13:32:43.296Z,46.53
2016-09-13T13:33:54.325Z,44.18
2016-09-13T13:35:05.544Z,46.22
2016-09-13T13:36:16.562Z,48.08
2016-09-13T13:37:27.586Z,44.94
2016-09-13T13:38:38.604Z,46.71
2016-09-13T13:39:49.621Z,47.08
2016-09-13T13:41:00.845Z,47.57
2016-09-13T13:42:11.866Z,47.67
2016-09-13T13:43:22.887Z,47.17
2016-09-13T13:44:33.906Z,48.06
2016-09-13T13:45:44.919Z,45.31
2016-09-13T13:46:55.943Z,46.69
2016-09-13T13:48:07.004Z,47.17
2016-09-13T13:49:18.236Z,45.12
2016-09-13T13:50:29.465Z,46.59
2016-09-13T13:51:40.484Z,45.61
2016-09-13T13:52:51.703Z,45.61
2016-09-13T13:54:02.722Z,45.39
2016-09-13T13:55:13.739Z,44.7
2016-09-13T13:56:24.764Z,45.88
2016-09-13T13:57:35.790Z,45.41
2016-09-13T13:58:46.807Z,44.73
2016-09-13T13:59:57.824Z,45.41
2016-09-13T14:01:08.857Z,46.78
2016-09-13T14:02:19.871Z,45.68
2016-09-13T14:03:30.889Z,45.9
2016-09-13T14:04:42.114Z,47.96
2016-09-13T14:05:53.144Z,46.98
2016-09-13T14:07:04.165Z,46.2
2016-09-13T14:08:15.187Z,45.21
2016-09-13T14:09:26.407Z,46.3
2016-09-13T14:10:37.425Z,45.02
2016-09-13T14:11:48.442Z,45.41
2016-09-13T14:12:59.457Z,46.78
2016-09-13T14:14:10.469Z,44.92
2016-09-13T14:15:21.485Z,45.88
2016-09-13T14:16:32.494Z,46.78
2016-09-13T14:17:43.503Z,45.41
2016-09-13T14:18:54.516Z,47.57
2016-09-13T14:20:05.937Z,47.96
2016-09-13T14:21:17.161Z,47.77
2016-09-13T14:22:28.171Z,46.49
2016-09-13T14:23:39.185Z,46.76
2016-09-13T14:24:50.407Z,48.33
2016-09-13T14:26:01.418Z,46.76
2016-09-13T14:27:12.441Z,46.47
2016-09-13T14:28:23.491Z,45.49
2016-09-13T14:29:34.507Z,45.78
2016-09-13T14:30:45.521Z,46.47
2016-09-13T14:31:56.542Z,45.98
2016-09-13T14:33:07.564Z,46.56
2016-09-13T14:34:18.588Z,46.47
2016-09-13T14:35:29.599Z,46.56
2016-09-13T14:36:40.815Z,45.09
2016-09-13T14:37:51.839Z,46.15
2016-09-13T14:39:02.847Z,45.86
2016-09-13T14:40:13.872Z,46.64
2016-09-13T14:41:24.893Z,47.23
2016-09-13T14:42:35.911Z,48.87
2016-09-13T14:43:46.921Z,47.69
2016-09-13T14:44:57.934Z,47.4
2016-09-13T14:46:09.163Z,48.09
2016-09-13T14:47:20.176Z,46.23
2016-09-13T14:48:31.250Z,46.72
2016-09-13T14:49:42.476Z,48.75
2016-09-13T14:50:53.495Z,45.52
2016-09-13T14:52:04.512Z,45.42
2016-09-13T14:53:15.526Z,47.67
2016-09-13T14:54:26.541Z,48.55
2016-09-13T14:55:37.577Z,47.87
2016-09-13T14:56:48.596Z,47.36
2016-09-13T14:57:59.617Z,47.26
2016-09-13T14:59:10.641Z,48.43
2016-09-13T15:00:21.657Z,47.85
2016-09-13T15:01:32.672Z,49.31
2016-09-13T15:02:43.693Z,48.14
2016-09-13T15:03:54.909Z,49.58
2016-09-13T15:05:05.921Z,47.63
2016-09-13T15:06:16.936Z,47.72
2016-09-13T15:07:27.947Z,47.43
2016-09-13T15:08:38.948Z,45.97
2016-09-13T15:09:49.979Z,46.65
2016-09-13T15:11:01.000Z,46.45
2016-09-13T15:12:12.006Z,47.43
2016-09-13T15:13:23.254Z,46.75
2016-09-13T15:14:34.276Z,47.63
2016-09-13T15:15:45.303Z,47.53
2016-09-13T15:16:56.516Z,48.21